createdAt,value
2023-02-15T00:08:00.996Z,0.9
2023-02-15T00:28:04.770Z,0.8
2023-02-15T00:38:07.415Z,0.7
2023-02-15T00:48:09.829Z,0.6
2023-02-15T00:58:11.996Z,0.5
2023-02-15T01:08:13.704Z,0.2
2023-02-15T01:18:15.959Z,0.1
2023-02-15T01:28:17.985Z,0.1
2023-02-15T01:38:19.943Z,0.1
2023-02-15T01:48:22.326Z,0
2023-02-15T01:58:24.644Z,0
2023-02-15T02:08:27.308Z,-0.1
2023-02-15T02:18:29.396Z,-0.3
2023-02-15T02:28:31.926Z,-0.3
2023-02-15T02:38:34.373Z,-0.4
2023-02-15T02:48:36.627Z,-0.4
2023-02-15T02:58:38.602Z,-0.5
2023-02-15T03:08:40.715Z,-0.6
2023-02-15T03:18:42.505Z,-0.6
2023-02-15T03:28:45.110Z,-0.7
2023-02-15T03:38:47.485Z,-0.7
2023-02-15T03:48:49.828Z,-0.7
2023-02-15T03:58:52.042Z,-0.7
2023-02-15T04:08:54.351Z,-0.5
2023-02-15T04:18:56.572Z,-0.6
2023-02-15T04:28:58.322Z,-0.7
2023-02-15T04:39:00.895Z,-0.7
2023-02-15T04:49:03.418Z,-0.8
2023-02-15T04:59:05.788Z,-0.9
2023-02-15T05:09:08.262Z,-0.8
2023-02-15T05:19:10.224Z,-1
2023-02-15T05:29:12.812Z,-1
2023-02-15T05:39:14.615Z,-0.9
2023-02-15T05:49:17.171Z,-0.9
2023-02-15T05:59:19.198Z,-1
2023-02-15T06:09:20.994Z,-1
2023-02-15T06:19:22.649Z,-0.9
2023-02-15T06:29:24.323Z,-0.8
2023-02-15T06:39:26.628Z,-0.8
2023-02-15T06:49:28.496Z,-0.9
2023-02-15T06:59:30.958Z,-0.9
2023-02-15T07:09:33.245Z,-0.7
2023-02-15T07:19:35.669Z,-0.6
2023-02-15T07:29:37.551Z,-0.5
2023-02-15T07:39:40.035Z,-0.2
2023-02-15T07:49:42.139Z,0.6
2023-02-15T07:59:44.600Z,1.4
2023-02-15T08:09:46.341Z,2
2023-02-15T08:19:48.105Z,2.5
2023-02-15T08:29:50.297Z,3.2
2023-02-15T08:39:52.878Z,4.3
2023-02-15T08:49:55.339Z,4.8
2023-02-15T08:59:57.716Z,5.2
2023-02-15T09:09:59.614Z,6
2023-02-15T09:20:02.047Z,6.4
2023-02-15T09:30:04.266Z,7.1
2023-02-15T09:40:06.157Z,7.7
2023-02-15T09:50:08.603Z,7.7
2023-02-15T10:00:10.337Z,8.6
2023-02-15T10:10:12.874Z,8.7
2023-02-15T10:20:14.614Z,8.7
2023-02-15T10:30:16.854Z,9.3
2023-02-15T10:40:18.766Z,9.7
2023-02-15T10:50:20.824Z,10.7
2023-02-15T11:00:22.490Z,10.3
2023-02-15T11:10:24.776Z,11
2023-02-15T11:20:27.077Z,11.3
2023-02-15T11:30:29.007Z,11.7
2023-02-15T11:40:31.361Z,11.9
2023-02-15T11:50:33.416Z,12.2
2023-02-15T12:00:36.026Z,12.5
2023-02-15T12:10:38.026Z,12.7
2023-02-15T12:20:39.852Z,13.1
2023-02-15T12:30:41.749Z,13.3
2023-02-15T12:40:43.695Z,13.5
2023-02-15T12:50:45.304Z,13.7
2023-02-15T13:00:47.493Z,14
2023-02-15T13:10:49.750Z,14.3
2023-02-15T13:20:52.304Z,14.2
2023-02-15T13:30:54.532Z,14.5
2023-02-15T13:40:56.189Z,14.4
2023-02-15T13:50:58.382Z,14.5
2023-02-15T14:01:00.994Z,14.3
2023-02-15T14:11:03.373Z,14.6
2023-02-15T14:21:05.344Z,14.6
2023-02-15T14:41:09.183Z,14.9
2023-02-15T14:51:11.254Z,14.8
2023-02-15T15:01:13.416Z,14.2
2023-02-15T15:11:15.518Z,13.9
2023-02-15T15:21:18.049Z,13.7
2023-02-15T15:21:39.976Z,13.7
2023-02-15T15:31:27.518Z,13.6
2023-02-15T15:41:30.026Z,13.3
2023-02-15T15:51:32.356Z,13
2023-02-15T16:01:34.269Z,12.8
2023-02-15T16:11:36.178Z,12.3
2023-02-15T16:21:38.154Z,11.8
2023-02-15T16:31:40.603Z,11.4
2023-02-15T16:41:42.510Z,11
2023-02-15T16:51:44.538Z,10.7
2023-02-15T17:01:46.605Z,10.2
2023-02-15T17:11:48.589Z,9.9
2023-02-15T17:21:50.589Z,9.5
2023-02-15T17:31:52.747Z,9.3
2023-02-15T17:41:54.560Z,9.2
2023-02-15T17:51:56.752Z,8.7
2023-02-15T18:01:58.675Z,8.1
2023-02-15T18:12:00.493Z,7.8
2023-02-15T18:22:02.619Z,7.4
2023-02-15T18:32:04.793Z,7.1
2023-02-15T18:42:07.294Z,7.2
2023-02-15T18:52:09.921Z,7.1
2023-02-15T19:02:11.974Z,7
2023-02-15T19:12:13.948Z,7.1
2023-02-15T19:22:15.605Z,7.1
2023-02-15T19:32:17.826Z,7.5
2023-02-15T19:42:20.309Z,7.4
2023-02-15T19:52:22.479Z,7.3
2023-02-15T20:02:24.388Z,7.1
2023-02-15T20:12:26.759Z,6.6
2023-02-15T20:22:28.907Z,6.8
2023-02-15T20:32:30.972Z,6.8
2023-02-15T20:42:32.926Z,6.3
2023-02-15T20:52:35.235Z,6.1
2023-02-15T21:02:37.194Z,5.8
2023-02-15T21:12:39.136Z,5.8
2023-02-15T21:22:41.583Z,5.3
2023-02-15T21:32:44.099Z,5
2023-02-15T21:42:46.111Z,4.7
2023-02-15T21:52:47.850Z,4.5
2023-02-15T22:02:50.286Z,4.4
2023-02-15T22:12:52.914Z,4.3
2023-02-15T22:22:55.432Z,4
2023-02-15T22:32:57.415Z,4.4
2023-02-15T22:42:59.417Z,4.6
2023-02-15T22:53:01.538Z,4.1
2023-02-15T23:13:05.918Z,3.7
2023-02-15T23:23:08.124Z,3.7
2023-02-15T23:33:10.270Z,3.7
2023-02-15T23:43:12.972Z,4
2023-02-15T23:53:15.450Z,4.2
